Terminal Aerodrome Forecast
Issued by NWS Tulsa, OK

Home | Current Version | Previous Version | Text Only | Print | Product List | Glossary On
Versions: 1 2 3 4 5 6 7 8 9 10 11 12 13 14
000
FTUS44 KTSA 281720
TAFFSM
TAF
KFSM 281720Z 2818/2918 06006KT P6SM SKC
     FM291000 09004KT P6SM OVC050
      TEMPO 2912/2916 4SM TS OVC025CB
     FM291600 08011KT P6SM VCTS OVC015CB=

USA.gov is the U.S. government's official web portal to all federal, state and local government web resources and services.